Time;durP1;ratioP1;P1;durP2;ratioP2;P2;SDS_P1;SDS_P2;PMS_P1;PMS_P2;Temp;Humidity;BMP_temperature;BMP_pressure;BME280_temperature;BME280_humidity;BME280_pressure;Samples;Min_cycle;Max_cycle;Signal;HPM_P1;HPM_P2
2021/01/17 00:01:28;;;;;;;11.02;9.57;;;;;;;;;;5068255;28;20203;-42
2021/01/17 00:03:53;;;;;;;10.73;9.63;;;;;;;;;;5066432;28;20172;-42
2021/01/17 00:06:18;;;;;;;14.73;10.40;;;;;;;;;;5068589;28;20225;-43
2021/01/17 00:08:43;;;;;;;12.73;9.68;;;;;;;;;;5069985;28;20182;-43
2021/01/17 00:11:11;;;;;;;13.20;9.52;;;;;;;;;;5065915;28;20172;-43
2021/01/17 00:13:36;;;;;;;11.80;9.23;;;;;;;;;;5066436;28;20302;-43
2021/01/17 00:16:02;;;;;;;10.30;9.20;;;;;;;;;;5070196;28;20712;-43
2021/01/17 00:18:27;;;;;;;11.87;10.07;;;;;;;;;;5067513;28;20211;-43
2021/01/17 00:20:52;;;;;;;12.65;10.20;;;;;;;;;;5067102;28;20575;-43
2021/01/17 00:23:17;;;;;;;12.33;9.57;;;;;;;;;;5067080;28;20530;-43
2021/01/17 00:25:42;;;;;;;11.30;9.93;;;;;;;;;;5069377;28;20199;-43
2021/01/17 00:28:07;;;;;;;9.93;8.93;;;;;;;;;;5069564;28;20664;-43
2021/01/17 00:30:33;;;;;;;13.00;10.18;;;;;;;;;;5068310;28;20182;-43
2021/01/17 00:32:59;;;;;;;11.73;9.53;;;;;;;;;;5071243;28;20186;-43
2021/01/17 00:35:25;;;;;;;12.40;9.20;;;;;;;;;;5070690;28;20613;-43
2021/01/17 00:37:51;;;;;;;10.93;9.63;;;;;;;;;;5069615;28;20596;-43
2021/01/17 00:40:16;;;;;;;13.10;10.63;;;;;;;;;;5066953;28;20207;-43
2021/01/17 00:42:45;;;;;;;12.57;9.63;;;;;;;;;;5069328;28;21221;-43
2021/01/17 00:45:11;;;;;;;11.93;9.90;;;;;;;;;;5064102;28;20175;-43
2021/01/17 00:47:36;;;;;;;13.63;10.80;;;;;;;;;;5072182;28;20597;-43
2021/01/17 00:50:02;;;;;;;12.48;9.75;;;;;;;;;;5070348;28;20647;-43
2021/01/17 00:52:27;;;;;;;10.53;8.83;;;;;;;;;;5070681;28;20176;-43
2021/01/17 00:54:52;;;;;;;13.30;9.35;;;;;;;;;;5068824;28;20232;-42
2021/01/17 00:57:17;;;;;;;11.55;9.88;;;;;;;;;;5069939;28;20237;-42
2021/01/17 00:59:42;;;;;;;12.20;9.33;;;;;;;;;;5072696;28;20207;-45
2021/01/17 01:02:08;;;;;;;12.60;10.60;;;;;;;;;;5071200;28;20262;-44
2021/01/17 01:04:34;;;;;;;10.10;8.87;;;;;;;;;;5068361;28;20174;-43
2021/01/17 01:06:59;;;;;;;11.07;9.93;;;;;;;;;;5072607;28;20641;-42
2021/01/17 01:09:24;;;;;;;11.00;9.77;;;;;;;;;;5072580;28;20210;-43
2021/01/17 01:11:49;;;;;;;10.97;9.13;;;;;;;;;;5070320;28;20182;-43
2021/01/17 01:14:15;;;;;;;11.63;9.87;;;;;;;;;;5070778;28;20226;-42
2021/01/17 01:16:40;;;;;;;11.73;10.13;;;;;;;;;;5072092;28;20172;-43
2021/01/17 01:19:05;;;;;;;11.20;9.80;;;;;;;;;;5073048;28;20203;-42
2021/01/17 01:21:31;;;;;;;12.13;10.23;;;;;;;;;;5069759;28;20803;-43
2021/01/17 01:23:57;;;;;;;12.83;10.27;;;;;;;;;;5070742;28;20182;-43
2021/01/17 01:26:23;;;;;;;10.57;9.47;;;;;;;;;;5071323;28;20589;-43
2021/01/17 01:28:52;;;;;;;13.97;11.30;;;;;;;;;;5072438;28;20179;-43
2021/01/17 01:31:19;;;;;;;13.47;10.50;;;;;;;;;;5071145;28;20690;-43
2021/01/17 01:33:44;;;;;;;13.50;10.97;;;;;;;;;;5066646;28;20617;-43
2021/01/17 01:36:09;;;;;;;15.90;12.57;;;;;;;;;;5072552;28;20608;-43
2021/01/17 01:38:34;;;;;;;14.75;11.80;;;;;;;;;;5071298;28;20179;-43
2021/01/17 01:40:59;;;;;;;14.98;11.35;;;;;;;;;;5072203;28;20211;-43
2021/01/17 01:43:24;;;;;;;13.83;11.10;;;;;;;;;;5066100;28;20257;-43
2021/01/17 01:45:50;;;;;;;14.97;12.13;;;;;;;;;;5072232;28;20163;-43
2021/01/17 01:48:16;;;;;;;16.37;11.87;;;;;;;;;;5070752;28;20236;-43
2021/01/17 01:50:41;;;;;;;14.67;11.20;;;;;;;;;;5071194;28;20175;-43
2021/01/17 01:53:06;;;;;;;16.80;12.60;;;;;;;;;;5066220;28;20664;-43
2021/01/17 01:55:32;;;;;;;13.27;10.67;;;;;;;;;;5067977;28;20179;-43
2021/01/17 01:57:59;;;;;;;14.90;11.50;;;;;;;;;;5071863;28;20175;-43
2021/01/17 02:00:24;;;;;;;17.00;13.17;;;;;;;;;;5069654;28;20906;-43
2021/01/17 02:02:50;;;;;;;14.17;12.07;;;;;;;;;;5069807;28;20643;-43
2021/01/17 02:05:15;;;;;;;15.30;12.63;;;;;;;;;;5069063;28;20204;-43
2021/01/17 02:07:59;;;;;;;13.67;10.90;;;;;;;;;;5071101;28;20175;-43
2021/01/17 02:10:24;;;;;;;14.70;12.63;;;;;;;;;;5069680;28;20183;-42
2021/01/17 02:12:56;;;;;;;13.77;12.10;;;;;;;;;;5067535;28;20614;-42
2021/01/17 02:15:27;;;;;;;14.67;12.30;;;;;;;;;;5068166;28;20178;-43
2021/01/17 02:17:52;;;;;;;14.93;12.53;;;;;;;;;;5070521;28;20609;-43
2021/01/17 02:20:24;;;;;;;15.17;12.33;;;;;;;;;;5069904;28;20653;-43
2021/01/17 02:23:16;;;;;;;14.93;12.03;;;;;;;;;;5068926;28;20175;-43
2021/01/17 02:25:41;;;;;;;14.87;12.63;;;;;;;;;;5060886;28;20710;-41
2021/01/17 02:28:08;;;;;;;15.47;12.60;;;;;;;;;;5071159;28;20593;-42
2021/01/17 02:30:34;;;;;;;16.63;11.90;;;;;;;;;;5051611;28;20544;-42
2021/01/17 02:33:07;;;;;;;16.23;13.70;;;;;;;;;;5068969;28;20954;-41
2021/01/17 02:35:33;;;;;;;16.33;13.00;;;;;;;;;;5068999;28;20614;-42
2021/01/17 02:38:09;;;;;;;17.10;13.10;;;;;;;;;;5070841;28;20593;-42
2021/01/17 02:40:43;;;;;;;14.50;11.60;;;;;;;;;;5068680;28;21294;-41
2021/01/17 02:43:08;;;;;;;15.07;12.00;;;;;;;;;;5068626;28;20621;-42
2021/01/17 02:45:34;;;;;;;20.13;13.30;;;;;;;;;;5069579;28;20644;-43
2021/01/17 02:47:59;;;;;;;16.17;13.63;;;;;;;;;;5071251;28;20522;-43
2021/01/17 02:50:24;;;;;;;18.98;13.43;;;;;;;;;;5070223;28;20232;-42
2021/01/17 02:52:55;;;;;;;18.13;13.87;;;;;;;;;;5068616;28;20183;-43
2021/01/17 02:55:21;;;;;;;15.30;12.03;;;;;;;;;;5070531;28;20214;-42
2021/01/17 02:57:48;;;;;;;18.30;13.63;;;;;;;;;;5070107;28;20641;-42
2021/01/17 03:00:15;;;;;;;18.70;13.17;;;;;;;;;;5070579;28;20290;-42
2021/01/17 03:02:43;;;;;;;14.93;12.10;;;;;;;;;;5068670;28;20704;-42
2021/01/17 03:05:17;;;;;;;14.13;11.40;;;;;;;;;;5066377;28;20683;-42
2021/01/17 03:07:45;;;;;;;16.60;12.60;;;;;;;;;;5070376;28;20643;-41
2021/01/17 03:10:11;;;;;;;16.07;12.47;;;;;;;;;;5069870;28;20613;-41
2021/01/17 03:12:36;;;;;;;16.83;12.27;;;;;;;;;;5072322;28;20612;-42
2021/01/17 03:15:02;;;;;;;16.60;12.35;;;;;;;;;;5068704;28;20182;-42
2021/01/17 03:17:27;;;;;;;16.00;12.33;;;;;;;;;;5068366;28;20252;-42
2021/01/17 03:19:52;;;;;;;13.82;11.02;;;;;;;;;;5070399;28;21206;-42
2021/01/17 03:22:17;;;;;;;15.98;12.80;;;;;;;;;;5068826;28;20163;-42
2021/01/17 03:24:43;;;;;;;13.18;11.70;;;;;;;;;;5068233;28;20192;-42
2021/01/17 03:27:08;;;;;;;15.80;12.80;;;;;;;;;;5069852;28;20585;-40
2021/01/17 03:29:33;;;;;;;14.60;11.83;;;;;;;;;;5070350;28;20216;-42
2021/01/17 03:31:58;;;;;;;14.03;11.70;;;;;;;;;;5069914;28;20183;-42
2021/01/17 03:34:24;;;;;;;16.83;12.37;;;;;;;;;;5067376;28;20179;-42
2021/01/17 03:36:49;;;;;;;13.73;11.13;;;;;;;;;;5066433;28;20257;-42
2021/01/17 03:39:14;;;;;;;13.85;12.02;;;;;;;;;;5069315;28;20172;-42
2021/01/17 03:41:39;;;;;;;17.10;13.77;;;;;;;;;;5069537;28;20252;-42
2021/01/17 03:44:10;;;;;;;16.47;13.10;;;;;;;;;;5066307;28;20225;-42
2021/01/17 03:46:35;;;;;;;16.77;12.83;;;;;;;;;;5069837;28;20547;-42
2021/01/17 03:49:00;;;;;;;18.20;12.88;;;;;;;;;;5069196;28;21041;-42
2021/01/17 03:51:26;;;;;;;14.65;12.57;;;;;;;;;;5070256;28;20642;-42
2021/01/17 03:53:51;;;;;;;15.43;12.23;;;;;;;;;;5067235;28;20187;-42
2021/01/17 03:56:20;;;;;;;17.45;13.52;;;;;;;;;;5070100;28;20630;-42
2021/01/17 03:58:45;;;;;;;18.00;13.00;;;;;;;;;;5068706;28;20232;-42
2021/01/17 04:01:10;;;;;;;18.63;12.45;;;;;;;;;;5070032;28;20684;-42
2021/01/17 04:03:35;;;;;;;14.77;12.10;;;;;;;;;;5065921;28;20183;-42
2021/01/17 04:06:00;;;;;;;16.27;12.97;;;;;;;;;;5070190;28;20506;-41
2021/01/17 04:08:26;;;;;;;17.70;12.47;;;;;;;;;;5068947;28;20205;-42
2021/01/17 04:10:51;;;;;;;18.08;12.85;;;;;;;;;;5069801;28;20182;-42
2021/01/17 04:13:16;;;;;;;17.13;12.35;;;;;;;;;;5069022;28;20298;-42
2021/01/17 04:15:41;;;;;;;17.05;12.35;;;;;;;;;;5067223;28;20228;-42
2021/01/17 04:18:06;;;;;;;17.87;13.00;;;;;;;;;;5069090;28;20522;-42
2021/01/17 04:20:31;;;;;;;16.90;12.00;;;;;;;;;;5070856;28;20207;-42
2021/01/17 04:23:01;;;;;;;13.55;12.10;;;;;;;;;;5073455;28;20171;-42
2021/01/17 04:25:26;;;;;;;13.97;11.73;;;;;;;;;;5070455;28;20412;-42
2021/01/17 04:27:51;;;;;;;14.73;12.73;;;;;;;;;;5073697;28;20598;-43
2021/01/17 04:30:17;;;;;;;16.75;12.70;;;;;;;;;;5071242;28;20260;-43
2021/01/17 04:32:42;;;;;;;15.53;12.70;;;;;;;;;;5073313;28;20298;-43
2021/01/17 04:35:07;;;;;;;15.45;13.20;;;;;;;;;;5069788;28;20193;-42
2021/01/17 04:37:33;;;;;;;18.13;13.60;;;;;;;;;;5072619;28;20195;-43
2021/01/17 04:39:58;;;;;;;15.65;12.52;;;;;;;;;;5072916;28;20696;-42
2021/01/17 04:42:23;;;;;;;15.02;12.68;;;;;;;;;;5072902;28;20171;-43
2021/01/17 04:44:52;;;;;;;17.03;13.10;;;;;;;;;;5071112;28;20253;-42
2021/01/17 04:47:19;;;;;;;15.80;13.20;;;;;;;;;;5043445;28;20183;-42
2021/01/17 04:49:45;;;;;;;16.10;12.70;;;;;;;;;;5072700;28;20585;-42
2021/01/17 04:52:12;;;;;;;17.30;13.63;;;;;;;;;;5069870;28;20670;-42
2021/01/17 04:54:37;;;;;;;15.57;12.73;;;;;;;;;;5070841;28;20597;-42
2021/01/17 04:57:07;;;;;;;14.40;12.67;;;;;;;;;;5071362;28;20611;-42
2021/01/17 04:59:36;;;;;;;15.33;12.20;;;;;;;;;;5071047;28;20266;-42
2021/01/17 05:02:04;;;;;;;14.67;12.50;;;;;;;;;;5072551;28;20642;-42
2021/01/17 05:04:38;;;;;;;18.00;13.27;;;;;;;;;;5070102;28;20662;-42
2021/01/17 05:07:09;;;;;;;17.50;13.67;;;;;;;;;;5067541;28;20617;-42
2021/01/17 05:09:36;;;;;;;16.70;13.17;;;;;;;;;;5072642;28;20589;-41
2021/01/17 05:12:10;;;;;;;15.90;13.00;;;;;;;;;;5072152;28;20605;-41
2021/01/17 05:14:43;;;;;;;15.87;13.60;;;;;;;;;;5070304;28;21277;-41
2021/01/17 05:17:08;;;;;;;14.20;12.30;;;;;;;;;;5068881;28;20598;-41
2021/01/17 05:19:35;;;;;;;16.93;12.80;;;;;;;;;;5071652;28;21164;-41
2021/01/17 05:22:02;;;;;;;17.37;12.53;;;;;;;;;;5072019;28;20171;-41
2021/01/17 05:24:30;;;;;;;17.67;13.67;;;;;;;;;;5064799;28;20641;-42
2021/01/17 05:26:56;;;;;;;18.60;14.77;;;;;;;;;;5072440;28;20629;-42
2021/01/17 05:29:21;;;;;;;16.20;12.17;;;;;;;;;;5070254;28;20642;-42
2021/01/17 05:31:53;;;;;;;17.37;12.60;;;;;;;;;;5071779;28;20594;-42
2021/01/17 05:34:18;;;;;;;16.47;12.50;;;;;;;;;;5069375;28;20192;-42
2021/01/17 05:36:43;;;;;;;16.50;12.90;;;;;;;;;;5070190;28;21159;-42
2021/01/17 05:39:09;;;;;;;15.30;12.40;;;;;;;;;;5070841;28;20182;-42
2021/01/17 05:41:34;;;;;;;16.23;12.77;;;;;;;;;;5071914;28;20215;-42
2021/01/17 05:43:59;;;;;;;15.43;12.80;;;;;;;;;;5068829;28;20198;-43
2021/01/17 05:46:24;;;;;;;15.88;13.38;;;;;;;;;;5072100;28;20707;-42
2021/01/17 05:48:49;;;;;;;16.77;13.33;;;;;;;;;;5070366;28;20170;-43
2021/01/17 05:51:27;;;;;;;15.37;11.80;;;;;;;;;;5071362;28;20660;-43
2021/01/17 05:53:53;;;;;;;19.10;13.30;;;;;;;;;;5065097;28;20178;-42
2021/01/17 05:56:18;;;;;;;13.50;11.30;;;;;;;;;;5069849;28;20621;-41
2021/01/17 05:58:44;;;;;;;17.70;13.50;;;;;;;;;;5070004;28;20625;-42
2021/01/17 06:01:16;;;;;;;16.63;12.53;;;;;;;;;;5069735;28;20685;-41
2021/01/17 06:03:51;;;;;;;14.93;12.67;;;;;;;;;;5071730;28;20186;-41
2021/01/17 06:06:36;;;;;;;14.33;12.10;;;;;;;;;;5068898;28;20678;-42
2021/01/17 06:09:03;;;;;;;16.50;12.93;;;;;;;;;;5070088;28;21158;-42
2021/01/17 06:11:28;;;;;;;16.07;12.47;;;;;;;;;;5068685;28;20617;-41
2021/01/17 06:13:54;;;;;;;15.10;11.80;;;;;;;;;;5071095;28;21223;-41
2021/01/17 06:16:22;;;;;;;15.23;12.20;;;;;;;;;;5067259;28;20175;-42
2021/01/17 06:18:54;;;;;;;14.10;12.50;;;;;;;;;;5071336;28;21045;-42
2021/01/17 06:21:19;;;;;;;15.00;13.17;;;;;;;;;;5068977;28;21205;-43
2021/01/17 06:23:51;;;;;;;16.77;12.63;;;;;;;;;;5070119;28;20593;-42
2021/01/17 06:26:22;;;;;;;17.53;13.17;;;;;;;;;;5068226;28;20171;-42
2021/01/17 06:28:48;;;;;;;15.17;12.03;;;;;;;;;;5075236;28;21150;-41
2021/01/17 06:31:19;;;;;;;15.37;12.60;;;;;;;;;;5067909;28;20625;-41
2021/01/17 06:33:45;;;;;;;14.67;12.40;;;;;;;;;;5069124;28;20176;-42
2021/01/17 06:36:11;;;;;;;18.50;13.20;;;;;;;;;;5076386;28;21227;-42
2021/01/17 06:38:37;;;;;;;18.60;13.70;;;;;;;;;;5069752;28;20179;-42
2021/01/17 06:41:02;;;;;;;18.27;13.13;;;;;;;;;;5071315;28;20710;-42
2021/01/17 06:43:29;;;;;;;17.20;13.47;;;;;;;;;;5067700;28;20229;-42
2021/01/17 06:45:55;;;;;;;16.80;13.50;;;;;;;;;;5069377;28;20198;-42
2021/01/17 06:48:21;;;;;;;17.43;13.70;;;;;;;;;;5069926;28;20621;-41
2021/01/17 06:50:46;;;;;;;17.70;13.07;;;;;;;;;;5071157;28;20236;-42
2021/01/17 06:53:20;;;;;;;23.30;14.33;;;;;;;;;;5075662;28;21096;-41
2021/01/17 06:55:45;;;;;;;20.37;14.87;;;;;;;;;;5065949;28;20179;-42
2021/01/17 06:58:14;;;;;;;19.60;15.20;;;;;;;;;;5078132;28;20603;-43
2021/01/17 07:00:40;;;;;;;19.00;15.20;;;;;;;;;;5067227;28;20755;-44
2021/01/17 07:03:13;;;;;;;21.67;15.33;;;;;;;;;;5070896;28;20685;-42
2021/01/17 07:06:00;;;;;;;18.00;14.63;;;;;;;;;;5059627;28;20685;-42
2021/01/17 07:08:31;;;;;;;20.23;14.00;;;;;;;;;;5063784;28;21179;-42
2021/01/17 07:11:03;;;;;;;20.03;15.40;;;;;;;;;;5067471;28;20623;-42
2021/01/17 07:13:33;;;;;;;19.60;15.90;;;;;;;;;;5068156;28;20999;-42
2021/01/17 07:16:00;;;;;;;20.90;15.90;;;;;;;;;;5066064;28;20597;-42
2021/01/17 07:18:31;;;;;;;17.93;13.83;;;;;;;;;;5078056;28;20617;-43
2021/01/17 07:20:58;;;;;;;19.07;14.60;;;;;;;;;;5073494;28;20712;-42
2021/01/17 07:23:24;;;;;;;23.30;15.53;;;;;;;;;;5068924;28;20953;-42
2021/01/17 07:25:49;;;;;;;17.60;13.30;;;;;;;;;;5075526;28;21043;-42
2021/01/17 07:28:15;;;;;;;19.30;14.20;;;;;;;;;;5068843;28;20999;-42
2021/01/17 07:30:50;;;;;;;17.13;15.13;;;;;;;;;;5068702;28;20181;-42
2021/01/17 07:33:16;;;;;;;17.63;13.93;;;;;;;;;;5066485;28;20624;-42
2021/01/17 07:35:42;;;;;;;20.67;15.27;;;;;;;;;;5070202;28;20593;-42
2021/01/17 07:38:18;;;;;;;22.57;16.50;;;;;;;;;;5064450;28;20628;-42
2021/01/17 07:40:52;;;;;;;19.97;14.50;;;;;;;;;;5073143;28;20636;-42
2021/01/17 07:43:18;;;;;;;17.90;14.53;;;;;;;;;;5069156;28;21150;-43
2021/01/17 07:45:43;;;;;;;20.07;15.73;;;;;;;;;;5062607;28;20590;-43
2021/01/17 07:48:10;;;;;;;19.07;15.00;;;;;;;;;;5070362;28;20597;-42
2021/01/17 07:50:39;;;;;;;19.40;14.97;;;;;;;;;;5069957;28;20531;-41
2021/01/17 07:53:07;;;;;;;18.77;15.03;;;;;;;;;;5075915;28;20601;-42
2021/01/17 07:55:33;;;;;;;19.63;13.70;;;;;;;;;;5074124;28;20600;-42
2021/01/17 07:57:59;;;;;;;19.97;14.80;;;;;;;;;;5075760;28;21161;-42
2021/01/17 08:00:25;;;;;;;18.60;15.03;;;;;;;;;;5072589;28;20657;-42
2021/01/17 08:02:50;;;;;;;17.30;14.30;;;;;;;;;;5076025;28;20160;-42
2021/01/17 08:05:15;;;;;;;17.00;14.27;;;;;;;;;;5069836;28;22367;-42
2021/01/17 08:07:41;;;;;;;17.63;13.68;;;;;;;;;;5074672;28;20738;-41
2021/01/17 08:10:06;;;;;;;21.33;15.10;;;;;;;;;;5071959;28;20654;-42
2021/01/17 08:12:35;;;;;;;18.77;14.00;;;;;;;;;;5081685;28;20180;-42
2021/01/17 08:15:10;;;;;;;16.57;14.40;;;;;;;;;;5068829;28;20203;-43
2021/01/17 08:17:36;;;;;;;18.07;14.67;;;;;;;;;;5070379;28;20699;-43
2021/01/17 08:20:03;;;;;;;17.90;14.10;;;;;;;;;;5070758;28;20660;-43
2021/01/17 08:22:28;;;;;;;20.23;15.20;;;;;;;;;;5070275;28;20695;-42
2021/01/17 08:24:57;;;;;;;20.10;15.37;;;;;;;;;;5070151;28;20720;-43
2021/01/17 08:27:31;;;;;;;16.50;14.17;;;;;;;;;;5074511;28;20695;-43
2021/01/17 08:30:08;;;;;;;20.90;15.50;;;;;;;;;;5067647;28;20606;-43
2021/01/17 08:32:52;;;;;;;18.50;14.07;;;;;;;;;;5067675;28;20589;-42
2021/01/17 08:35:20;;;;;;;16.77;13.87;;;;;;;;;;5077244;28;20741;-41
2021/01/17 08:37:57;;;;;;;18.60;14.53;;;;;;;;;;5074383;28;20873;-43
2021/01/17 08:40:28;;;;;;;16.80;13.50;;;;;;;;;;5083899;28;20651;-43
2021/01/17 08:42:57;;;;;;;19.57;14.60;;;;;;;;;;5064678;28;20752;-41
2021/01/17 08:45:22;;;;;;;16.77;13.40;;;;;;;;;;5078276;28;20613;-41
2021/01/17 08:47:51;;;;;;;17.10;13.63;;;;;;;;;;5081372;28;20613;-42
2021/01/17 08:50:36;;;;;;;17.70;14.27;;;;;;;;;;5084031;28;20175;-42
2021/01/17 08:53:11;;;;;;;16.13;13.77;;;;;;;;;;5081240;28;20609;-41
2021/01/17 08:55:37;;;;;;;16.33;13.77;;;;;;;;;;5078410;28;20603;-42
2021/01/17 08:58:02;;;;;;;18.60;14.57;;;;;;;;;;5072754;28;20617;-43
2021/01/17 09:00:46;;;;;;;16.03;14.27;;;;;;;;;;5083727;28;20556;-42
2021/01/17 09:03:30;;;;;;;18.60;14.67;;;;;;;;;;5081000;28;20195;-43
2021/01/17 09:06:00;;;;;;;17.40;14.20;;;;;;;;;;5077486;28;20606;-42
2021/01/17 09:08:26;;;;;;;15.30;13.50;;;;;;;;;;5072552;28;20656;-42
2021/01/17 09:10:51;;;;;;;15.53;13.83;;;;;;;;;;5080922;28;20603;-42
2021/01/17 09:13:17;;;;;;;18.07;14.50;;;;;;;;;;5079656;28;20212;-42
2021/01/17 09:15:51;;;;;;;16.90;14.00;;;;;;;;;;5078101;28;20202;-43
2021/01/17 09:18:22;;;;;;;15.93;13.60;;;;;;;;;;5079681;28;20594;-43
2021/01/17 09:20:49;;;;;;;17.13;14.50;;;;;;;;;;5084406;28;20695;-42
2021/01/17 09:23:15;;;;;;;14.53;13.03;;;;;;;;;;5082442;28;20587;-42
2021/01/17 09:25:41;;;;;;;15.40;13.10;;;;;;;;;;5077983;28;20630;-43
2021/01/17 09:28:06;;;;;;;16.40;13.33;;;;;;;;;;5082770;28;20679;-43
2021/01/17 09:30:31;;;;;;;17.90;14.90;;;;;;;;;;5079097;28;20199;-43
2021/01/17 09:32:56;;;;;;;16.70;13.80;;;;;;;;;;5073522;28;20190;-43
2021/01/17 09:35:22;;;;;;;15.83;14.23;;;;;;;;;;5078198;28;20313;-42
2021/01/17 09:37:49;;;;;;;15.33;13.70;;;;;;;;;;5078825;28;20559;-42
2021/01/17 09:40:14;;;;;;;18.33;14.23;;;;;;;;;;5078862;28;20657;-42
2021/01/17 09:42:40;;;;;;;16.63;13.82;;;;;;;;;;5081999;28;20751;-42
2021/01/17 09:45:07;;;;;;;18.03;14.00;;;;;;;;;;5082592;28;20519;-42
2021/01/17 09:47:35;;;;;;;14.33;12.43;;;;;;;;;;5078911;28;20163;-41
2021/01/17 09:50:08;;;;;;;15.50;13.83;;;;;;;;;;5070697;28;20604;-43
2021/01/17 09:52:36;;;;;;;18.40;14.50;;;;;;;;;;5080541;28;20939;-42
2021/01/17 09:55:02;;;;;;;18.30;14.70;;;;;;;;;;5082567;28;20588;-42
2021/01/17 09:57:27;;;;;;;18.90;15.13;;;;;;;;;;5079911;28;20606;-42
2021/01/17 09:59:53;;;;;;;20.70;16.00;;;;;;;;;;5073595;28;20176;-43
2021/01/17 10:02:18;;;;;;;17.07;14.63;;;;;;;;;;5082658;28;20169;-42
2021/01/17 10:04:44;;;;;;;18.83;15.80;;;;;;;;;;5079713;28;20659;-42
2021/01/17 10:07:13;;;;;;;18.63;14.80;;;;;;;;;;5077235;28;20536;-42
2021/01/17 10:09:38;;;;;;;18.27;14.93;;;;;;;;;;5079057;28;20274;-42
2021/01/17 10:12:04;;;;;;;20.10;15.60;;;;;;;;;;5076084;28;20683;-42
2021/01/17 10:14:33;;;;;;;22.13;15.13;;;;;;;;;;5077193;28;20239;-42
2021/01/17 10:16:59;;;;;;;18.33;15.17;;;;;;;;;;5064053;28;20538;-42
2021/01/17 10:19:25;;;;;;;18.10;14.90;;;;;;;;;;5068411;28;20606;-42
2021/01/17 10:21:51;;;;;;;19.27;15.20;;;;;;;;;;5075692;28;20225;-43
2021/01/17 10:24:20;;;;;;;17.20;15.30;;;;;;;;;;5073514;28;20733;-42
2021/01/17 10:26:48;;;;;;;17.33;15.53;;;;;;;;;;5063509;28;20196;-43
2021/01/17 10:29:13;;;;;;;19.47;14.87;;;;;;;;;;5064307;28;20606;-41
2021/01/17 10:31:39;;;;;;;18.33;15.73;;;;;;;;;;5070553;28;20634;-41
2021/01/17 10:34:04;;;;;;;18.00;15.13;;;;;;;;;;5067626;28;20215;-41
2021/01/17 10:36:29;;;;;;;16.97;15.10;;;;;;;;;;5068046;28;20273;-42
2021/01/17 10:38:54;;;;;;;16.42;13.57;;;;;;;;;;5069575;28;20319;-42
2021/01/17 10:41:27;;;;;;;16.50;14.70;;;;;;;;;;5069017;28;20210;-42
2021/01/17 10:44:04;;;;;;;17.20;15.40;;;;;;;;;;5066565;28;20660;-42
2021/01/17 10:46:33;;;;;;;21.83;16.60;;;;;;;;;;5060425;28;20598;-42
2021/01/17 10:49:00;;;;;;;17.17;15.30;;;;;;;;;;5069716;28;21256;-43
2021/01/17 10:51:42;;;;;;;16.63;13.90;;;;;;;;;;5067884;28;20647;-43
2021/01/17 10:54:09;;;;;;;14.40;12.90;;;;;;;;;;5068399;28;21025;-42
2021/01/17 10:56:35;;;;;;;13.53;12.10;;;;;;;;;;5069224;28;20569;-42
2021/01/17 10:59:01;;;;;;;14.77;12.37;;;;;;;;;;5067549;28;20611;-42
2021/01/17 11:01:29;;;;;;;15.27;13.67;;;;;;;;;;5068864;28;22562;-42
2021/01/17 11:03:56;;;;;;;14.97;12.97;;;;;;;;;;5070933;28;20237;-42
2021/01/17 11:06:25;;;;;;;14.57;12.50;;;;;;;;;;5056630;28;20604;-41
2021/01/17 11:08:53;;;;;;;13.67;12.10;;;;;;;;;;5060327;28;20924;-42
2021/01/17 11:11:19;;;;;;;15.90;13.00;;;;;;;;;;5066453;28;20609;-42
2021/01/17 11:13:54;;;;;;;17.20;12.13;;;;;;;;;;5062552;28;20661;-42
2021/01/17 11:16:32;;;;;;;14.20;12.33;;;;;;;;;;5067906;28;20204;-42
2021/01/17 11:18:57;;;;;;;14.60;12.27;;;;;;;;;;5057771;28;20682;-42
2021/01/17 11:21:23;;;;;;;12.97;11.60;;;;;;;;;;5064368;28;20658;-42
2021/01/17 11:23:57;;;;;;;15.50;13.17;;;;;;;;;;5064060;28;20612;-42
2021/01/17 11:26:23;;;;;;;14.10;12.60;;;;;;;;;;5074154;28;20182;-42
2021/01/17 11:28:51;;;;;;;16.53;13.40;;;;;;;;;;5070444;28;20575;-42
2021/01/17 11:31:18;;;;;;;13.43;12.03;;;;;;;;;;5067623;28;20649;-42
2021/01/17 11:33:43;;;;;;;12.77;11.40;;;;;;;;;;5070360;28;20575;-42
2021/01/17 11:36:09;;;;;;;16.43;13.27;;;;;;;;;;5071943;28;20615;-42
2021/01/17 11:38:41;;;;;;;13.57;12.13;;;;;;;;;;5066588;28;20181;-42
2021/01/17 11:41:06;;;;;;;14.27;12.77;;;;;;;;;;5067687;28;20200;-42
2021/01/17 11:43:31;;;;;;;16.73;13.10;;;;;;;;;;5074031;28;20602;-41
2021/01/17 11:46:03;;;;;;;14.70;11.68;;;;;;;;;;5068404;28;20179;-42
2021/01/17 11:48:30;;;;;;;16.57;13.10;;;;;;;;;;5068122;28;20641;-42
2021/01/17 11:50:55;;;;;;;15.23;11.70;;;;;;;;;;5064022;28;20598;-41
2021/01/17 11:53:20;;;;;;;13.77;12.38;;;;;;;;;;5065991;28;20617;-42
2021/01/17 11:55:48;;;;;;;14.80;11.80;;;;;;;;;;5071650;28;20408;-42
2021/01/17 11:58:15;;;;;;;13.40;11.73;;;;;;;;;;5070311;28;20177;-43
2021/01/17 12:00:49;;;;;;;14.37;12.87;;;;;;;;;;5068695;28;20651;-42
2021/01/17 12:03:22;;;;;;;16.53;13.37;;;;;;;;;;5072306;28;20688;-42
2021/01/17 12:05:57;;;;;;;17.20;12.30;;;;;;;;;;5071831;28;20603;-41
2021/01/17 12:08:22;;;;;;;13.93;10.63;;;;;;;;;;5058056;28;20608;-41
2021/01/17 12:10:56;;;;;;;13.53;11.07;;;;;;;;;;5075739;28;20612;-41
2021/01/17 12:13:21;;;;;;;13.30;11.80;;;;;;;;;;5065330;28;20220;-40
2021/01/17 12:15:46;;;;;;;13.93;12.53;;;;;;;;;;5064833;28;20667;-41
2021/01/17 12:18:12;;;;;;;14.73;12.50;;;;;;;;;;5062539;28;20186;-41
2021/01/17 12:20:37;;;;;;;13.80;11.70;;;;;;;;;;5066106;28;20580;-41
2021/01/17 12:23:02;;;;;;;14.00;11.27;;;;;;;;;;5068282;28;20184;-43
2021/01/17 12:25:28;;;;;;;12.97;10.67;;;;;;;;;;5065746;28;20567;-41
2021/01/17 12:27:53;;;;;;;14.93;11.13;;;;;;;;;;5068754;28;20260;-41
2021/01/17 12:30:18;;;;;;;19.67;13.05;;;;;;;;;;5064777;28;20255;-41
2021/01/17 12:32:43;;;;;;;10.97;9.70;;;;;;;;;;5069295;28;20168;-47
2021/01/17 12:35:09;;;;;;;18.70;12.10;;;;;;;;;;5064402;28;20184;-41
2021/01/17 12:37:34;;;;;;;13.57;10.83;;;;;;;;;;5063922;28;20178;-42
2021/01/17 12:39:59;;;;;;;14.10;11.13;;;;;;;;;;5065805;28;20683;-42
2021/01/17 12:42:24;;;;;;;12.32;11.02;;;;;;;;;;5072527;28;20175;-41
2021/01/17 12:44:49;;;;;;;12.00;10.20;;;;;;;;;;5072815;28;20185;-41
2021/01/17 12:47:14;;;;;;;13.30;11.52;;;;;;;;;;5068798;28;20660;-42
2021/01/17 12:49:39;;;;;;;13.90;12.43;;;;;;;;;;5072976;28;20179;-42
2021/01/17 12:52:05;;;;;;;14.00;11.75;;;;;;;;;;5073980;28;20326;-42
2021/01/17 12:54:30;;;;;;;16.37;12.37;;;;;;;;;;5076292;28;20612;-41
2021/01/17 12:56:56;;;;;;;15.37;11.63;;;;;;;;;;5080332;28;20179;-42
2021/01/17 12:59:21;;;;;;;14.50;12.00;;;;;;;;;;5078672;28;20182;-41
2021/01/17 13:01:46;;;;;;;13.80;11.27;;;;;;;;;;5074205;28;20700;-41
2021/01/17 13:04:11;;;;;;;12.52;11.27;;;;;;;;;;5077746;28;20174;-41
2021/01/17 13:06:36;;;;;;;16.10;14.40;;;;;;;;;;5071646;28;20558;-42
2021/01/17 13:09:02;;;;;;;13.20;11.10;;;;;;;;;;5074600;28;20180;-42
2021/01/17 13:11:27;;;;;;;11.97;10.80;;;;;;;;;;5070929;28;20317;-42
2021/01/17 13:13:52;;;;;;;11.43;9.80;;;;;;;;;;5062323;28;20228;-42
2021/01/17 13:16:19;;;;;;;14.10;10.20;;;;;;;;;;5068194;28;20178;-42
2021/01/17 13:18:45;;;;;;;11.33;9.93;;;;;;;;;;5063968;28;20710;-42
2021/01/17 13:21:11;;;;;;;11.60;10.10;;;;;;;;;;5065856;28;21005;-42
2021/01/17 13:23:36;;;;;;;10.70;9.60;;;;;;;;;;5064683;28;20587;-41
2021/01/17 13:26:01;;;;;;;11.37;9.63;;;;;;;;;;5068036;28;20314;-41
2021/01/17 13:28:27;;;;;;;10.57;9.47;;;;;;;;;;5066794;28;20179;-41
2021/01/17 13:30:52;;;;;;;10.70;9.60;;;;;;;;;;5070012;28;20176;-41
2021/01/17 13:33:17;;;;;;;11.17;9.87;;;;;;;;;;5072225;28;20235;-41
2021/01/17 13:35:43;;;;;;;10.00;9.00;;;;;;;;;;5071271;28;20851;-41
2021/01/17 13:38:09;;;;;;;11.00;9.10;;;;;;;;;;5066951;28;20177;-40
2021/01/17 13:40:35;;;;;;;10.00;8.33;;;;;;;;;;5071012;28;21026;-41
2021/01/17 13:43:00;;;;;;;10.23;9.13;;;;;;;;;;5074993;28;20613;-41
2021/01/17 13:45:25;;;;;;;10.93;9.80;;;;;;;;;;5066398;28;20290;-42
2021/01/17 13:47:51;;;;;;;11.57;9.80;;;;;;;;;;5068024;28;20268;-42
2021/01/17 13:50:16;;;;;;;10.03;8.77;;;;;;;;;;5071089;28;20180;-41
2021/01/17 13:52:44;;;;;;;13.20;10.13;;;;;;;;;;5065698;28;20188;-41
2021/01/17 13:55:10;;;;;;;11.43;9.57;;;;;;;;;;5078441;28;20692;-42
2021/01/17 13:57:36;;;;;;;11.00;9.90;;;;;;;;;;5070716;28;20590;-42
2021/01/17 14:00:01;;;;;;;13.07;10.60;;;;;;;;;;5072755;28;20702;-42
2021/01/17 14:02:26;;;;;;;12.93;10.87;;;;;;;;;;5070362;28;20192;-42
2021/01/17 14:04:51;;;;;;;11.90;10.05;;;;;;;;;;5072937;28;20178;-42
2021/01/17 14:07:17;;;;;;;13.35;11.35;;;;;;;;;;5068334;28;20264;-42
2021/01/17 14:09:42;;;;;;;12.63;10.90;;;;;;;;;;5070825;28;20169;-42
2021/01/17 14:12:08;;;;;;;13.00;11.13;;;;;;;;;;5072587;28;20886;-42
2021/01/17 14:14:34;;;;;;;13.03;11.73;;;;;;;;;;5068758;28;20681;-42
2021/01/17 14:16:59;;;;;;;16.43;12.47;;;;;;;;;;5069111;28;20703;-42
2021/01/17 14:19:24;;;;;;;15.20;12.43;;;;;;;;;;5065501;28;20516;-42